createdAt,value
2022-08-29T00:01:01.632Z,14.60
2022-08-29T00:06:17.613Z,14.50
2022-08-29T00:11:14.451Z,14.50
2022-08-29T00:15:58.275Z,14.40
2022-08-29T00:20:49.294Z,14.30
2022-08-29T00:25:34.018Z,14.20
2022-08-29T00:30:28.925Z,14.30
2022-08-29T00:35:29.982Z,14.10
2022-08-29T00:40:24.898Z,14.00
2022-08-29T00:45:11.823Z,13.90
2022-08-29T00:49:59.360Z,13.70
2022-08-29T00:54:49.338Z,13.60
2022-08-29T01:00:02.711Z,13.60
2022-08-29T01:04:56.046Z,13.50
2022-08-29T01:09:44.910Z,13.40
2022-08-29T01:14:30.400Z,13.30
2022-08-29T01:19:31.467Z,13.20
2022-08-29T01:24:38.791Z,13.20
2022-08-29T01:29:25.525Z,13.10
2022-08-29T01:34:13.753Z,13.00
2022-08-29T01:39:22.086Z,12.90
2022-08-29T01:44:26.699Z,12.80
2022-08-29T01:49:12.450Z,12.70
2022-08-29T01:53:57.581Z,12.60
2022-08-29T01:58:46.468Z,12.50
2022-08-29T02:03:36.196Z,12.50
2022-08-29T02:08:25.986Z,12.40
2022-08-29T02:13:09.925Z,12.40
2022-08-29T02:17:56.783Z,12.40
2022-08-29T02:22:44.797Z,12.40
2022-08-29T02:27:32.072Z,12.40
2022-08-29T02:32:24.862Z,12.30
2022-08-29T02:37:14.120Z,12.20
2022-08-29T02:42:13.159Z,12.20
2022-08-29T02:47:01.579Z,12.20
2022-08-29T02:51:49.027Z,12.10
2022-08-29T02:56:39.054Z,12.10
2022-08-29T03:01:28.369Z,12.10
2022-08-29T03:06:14.045Z,12.10
2022-08-29T03:11:00.277Z,12.20
2022-08-29T03:15:51.837Z,12.10
2022-08-29T03:20:42.086Z,12.10
2022-08-29T03:25:27.397Z,12.10
2022-08-29T03:30:19.766Z,12.00
2022-08-29T03:35:14.642Z,11.90
2022-08-29T03:40:11.167Z,11.80
2022-08-29T03:45:06.654Z,11.80
2022-08-29T03:49:56.409Z,11.80
2022-08-29T03:54:44.080Z,11.80
2022-08-29T03:59:34.421Z,11.80
2022-08-29T04:04:39.493Z,11.80
2022-08-29T04:09:24.415Z,11.90
2022-08-29T04:14:16.421Z,11.80
2022-08-29T04:19:02.009Z,11.90
2022-08-29T04:23:51.014Z,11.90
2022-08-29T04:28:37.626Z,11.80
2022-08-29T04:33:26.152Z,11.90
2022-08-29T04:38:25.657Z,12.00
2022-08-29T04:43:16.512Z,12.10
2022-08-29T04:48:20.686Z,12.20
2022-08-29T04:53:09.092Z,12.30
2022-08-29T04:57:57.592Z,12.50
2022-08-29T05:02:50.921Z,12.60
2022-08-29T05:07:52.372Z,12.90
2022-08-29T05:12:41.095Z,13.00
2022-08-29T05:17:30.197Z,13.30
2022-08-29T05:22:15.157Z,13.40
2022-08-29T05:27:05.160Z,13.50
2022-08-29T05:31:50.586Z,13.70
2022-08-29T05:36:39.079Z,13.90
2022-08-29T05:41:25.717Z,14.20
2022-08-29T05:46:15.226Z,14.40
2022-08-29T05:51:20.815Z,14.50
2022-08-29T05:56:40.371Z,14.60
2022-08-29T06:01:28.602Z,14.90
2022-08-29T06:06:30.189Z,15.10
2022-08-29T06:11:33.884Z,15.30
2022-08-29T06:16:56.979Z,15.50
2022-08-29T06:21:46.787Z,15.40
2022-08-29T06:26:48.745Z,15.80
2022-08-29T06:32:02.807Z,15.80
2022-08-29T06:37:14.331Z,16.10
2022-08-29T06:42:12.895Z,16.30
2022-08-29T06:47:19.162Z,16.50
2022-08-29T06:52:17.976Z,16.70
2022-08-29T06:57:25.577Z,17.20
2022-08-29T07:02:14.156Z,17.10
2022-08-29T07:07:01.325Z,17.60
2022-08-29T07:11:52.494Z,17.60
2022-08-29T07:16:42.489Z,17.60
2022-08-29T07:21:47.119Z,18.00
2022-08-29T07:27:21.265Z,18.00
2022-08-29T07:32:22.795Z,18.20
2022-08-29T07:37:11.873Z,18.30
2022-08-29T07:42:14.021Z,18.60
2022-08-29T07:47:03.695Z,19.00
2022-08-29T07:51:54.196Z,18.90
2022-08-29T07:56:50.576Z,18.90
2022-08-29T08:02:00.050Z,19.30
2022-08-29T08:07:04.144Z,19.50
2022-08-29T08:12:08.637Z,19.70
2022-08-29T08:22:30.947Z,20.10
2022-08-29T08:32:54.794Z,20.20
2022-08-29T08:37:46.094Z,20.60
2022-08-29T08:43:03.515Z,20.70
2022-08-29T08:49:27.535Z,20.90
2022-08-29T09:00:56.741Z,21.10
2022-08-29T09:07:22.676Z,21.30
2022-08-29T09:12:36.466Z,21.00
2022-08-29T09:17:36.519Z,21.70
2022-08-29T09:22:37.067Z,21.90
2022-08-29T13:09:14.810Z,24.60
2022-08-29T13:36:29.410Z,23.80
2022-08-29T13:42:19.466Z,23.70
2022-08-29T14:06:45.431Z,23.80
2022-08-29T14:20:00.438Z,23.10
2022-08-29T14:30:19.228Z,23.70
2022-08-29T14:47:34.300Z,23.70
2022-08-29T14:54:27.958Z,23.60
2022-08-29T15:00:43.281Z,23.40
2022-08-29T15:25:51.772Z,22.60
2022-08-29T15:38:26.345Z,23.00
2022-08-29T15:44:05.241Z,22.90
2022-08-29T15:55:09.436Z,22.60
2022-08-29T16:00:16.314Z,22.60
2022-08-29T16:06:10.974Z,22.40
2022-08-29T16:11:24.635Z,22.30
2022-08-29T16:17:00.558Z,21.90
2022-08-29T16:22:40.081Z,21.90
2022-08-29T16:28:22.809Z,21.50
2022-08-29T16:34:09.027Z,21.30
2022-08-29T16:45:25.795Z,20.80
2022-08-29T16:50:11.432Z,20.60
2022-08-29T17:00:16.653Z,20.30
2022-08-29T17:11:07.213Z,19.70
2022-08-29T17:15:52.527Z,19.30
2022-08-29T17:21:07.751Z,19.00
2022-08-29T17:26:22.855Z,18.70
2022-08-29T17:31:13.764Z,18.70
2022-08-29T17:37:29.515Z,18.40
2022-08-29T17:42:45.628Z,18.10
2022-08-29T17:55:48.167Z,17.60
2022-08-29T18:00:07.476Z,17.40
2022-08-29T18:12:09.392Z,16.90
2022-08-29T18:17:59.285Z,16.70
2022-08-29T18:23:24.847Z,16.50
2022-08-29T18:29:17.697Z,16.30
2022-08-29T18:34:08.237Z,16.20
2022-08-29T18:38:54.923Z,16.10
2022-08-29T18:44:18.648Z,16.00
2022-08-29T18:49:57.780Z,16.00
